createdAt,value
2023-02-19T00:00:15.265Z,101297.94
2023-02-19T00:02:48.368Z,101284.56
2023-02-19T00:05:17.498Z,101286.53
2023-02-19T00:07:46.519Z,101290.47
2023-02-19T00:10:15.749Z,101289.13
2023-02-19T00:12:44.859Z,101296.13
2023-02-19T00:15:13.905Z,101289.41
2023-02-19T00:17:43.011Z,101293.34
2023-02-19T00:20:14.175Z,101290.91
2023-02-19T00:22:43.252Z,101288.00
2023-02-19T00:25:12.376Z,101284.38
2023-02-19T00:27:41.446Z,101280.53
2023-02-19T00:30:12.054Z,101281.28
2023-02-19T00:32:41.447Z,101285.72
2023-02-19T00:35:14.867Z,101279.47
2023-02-19T00:37:44.032Z,101281.34
2023-02-19T00:40:13.560Z,101283.59
2023-02-19T00:42:42.686Z,101283.72
2023-02-19T00:45:11.798Z,101286.19
2023-02-19T00:47:40.858Z,101283.81
2023-02-19T00:50:10.279Z,101291.50
2023-02-19T00:52:41.000Z,101297.63
2023-02-19T00:55:10.268Z,101291.94
2023-02-19T00:57:39.529Z,101302.66
2023-02-19T01:00:09.987Z,101300.34
2023-02-19T01:02:39.063Z,101300.28
2023-02-19T01:05:08.656Z,101301.03
2023-02-19T01:07:38.482Z,101304.75
2023-02-19T01:10:09.639Z,101309.22
2023-02-19T01:12:38.778Z,101311.75
2023-02-19T01:15:08.454Z,101307.69
2023-02-19T01:17:37.745Z,101309.59
2023-02-19T01:20:07.436Z,101313.06
2023-02-19T01:22:36.508Z,101308.03
2023-02-19T01:25:05.891Z,101309.78
2023-02-19T01:27:36.297Z,101316.38
2023-02-19T01:30:06.007Z,101316.16
2023-02-19T01:32:35.286Z,101320.06
2023-02-19T01:35:04.542Z,101321.59
2023-02-19T01:37:33.800Z,101321.41
2023-02-19T01:40:03.705Z,101324.28
2023-02-19T01:42:32.791Z,101317.63
2023-02-19T01:45:29.237Z,101314.41
2023-02-19T01:48:10.108Z,101324.22
2023-02-19T01:50:43.201Z,101317.88
2023-02-19T01:53:15.941Z,101319.53
2023-02-19T01:55:47.783Z,101318.84
2023-02-19T01:58:17.614Z,101314.56
2023-02-19T02:00:48.350Z,101311.97
2023-02-19T02:03:17.516Z,101317.88
2023-02-19T02:05:55.720Z,101314.44
2023-02-19T02:08:58.240Z,101315.34
2023-02-19T02:11:27.652Z,101314.13
2023-02-19T02:13:57.874Z,101306.78
2023-02-19T02:16:39.162Z,101307.09
2023-02-19T02:19:24.309Z,101312.63
2023-02-19T02:22:06.765Z,101307.72
2023-02-19T02:25:10.644Z,101310.59
2023-02-19T02:27:52.412Z,101310.59
2023-02-19T02:30:39.223Z,101314.28
2023-02-19T02:33:21.176Z,101315.28
2023-02-19T02:35:55.923Z,101319.00
2023-02-19T02:38:29.898Z,101313.38
2023-02-19T02:40:59.497Z,101321.09
2023-02-19T02:43:29.124Z,101314.00
2023-02-19T02:45:59.583Z,101317.56
2023-02-19T02:48:38.397Z,101316.88
2023-02-19T02:51:17.015Z,101315.44
2023-02-19T02:54:14.322Z,101298.94
2023-02-19T02:56:46.483Z,101312.50
2023-02-19T02:59:18.020Z,101301.16
2023-02-19T03:02:12.241Z,101300.38
2023-02-19T03:05:08.461Z,101305.94
2023-02-19T03:07:41.982Z,101302.22
2023-02-19T03:10:16.438Z,101304.81
2023-02-19T03:13:04.768Z,101301.38
2023-02-19T03:15:57.040Z,101309.69
2023-02-19T03:18:48.817Z,101309.22
2023-02-19T03:21:23.019Z,101312.34
2023-02-19T03:24:11.147Z,101319.97
2023-02-19T03:26:42.768Z,101322.44
2023-02-19T03:29:26.984Z,101322.66
2023-02-19T03:32:09.600Z,101326.31
2023-02-19T03:34:45.453Z,101323.84
2023-02-19T03:37:19.499Z,101328.06
2023-02-19T03:39:48.706Z,101333.88
2023-02-19T03:42:28.588Z,101339.13
2023-02-19T03:45:10.351Z,101341.72
2023-02-19T03:47:48.229Z,101343.63
2023-02-19T03:50:22.962Z,101340.38
2023-02-19T03:53:02.965Z,101347.31
2023-02-19T03:55:41.906Z,101343.88
2023-02-19T03:58:17.484Z,101357.69
2023-02-19T04:00:55.095Z,101356.72
2023-02-19T04:03:30.023Z,101350.75
2023-02-19T04:06:04.038Z,101363.66
2023-02-19T04:08:37.258Z,101360.09
2023-02-19T04:11:10.113Z,101361.97
2023-02-19T04:13:45.606Z,101369.13
2023-02-19T04:16:20.392Z,101373.78
2023-02-19T04:18:52.923Z,101365.34
2023-02-19T04:21:25.176Z,101366.50
2023-02-19T04:23:54.418Z,101365.78
2023-02-19T04:26:24.717Z,101365.22
2023-02-19T04:28:54.883Z,101367.91
2023-02-19T04:31:25.142Z,101381.91
2023-02-19T04:33:54.193Z,101386.38
2023-02-19T04:36:24.636Z,101399.59
2023-02-19T04:38:53.705Z,101400.94
2023-02-19T04:41:22.813Z,101403.28
2023-02-19T04:43:51.911Z,101398.25
2023-02-19T04:46:21.118Z,101406.13
2023-02-19T04:48:50.212Z,101410.56
2023-02-19T04:51:19.319Z,101410.66
2023-02-19T04:53:49.728Z,101410.72
2023-02-19T04:56:19.355Z,101408.13
2023-02-19T04:58:48.538Z,101413.38
2023-02-19T05:01:17.953Z,101409.53
2023-02-19T05:03:47.056Z,101423.75
2023-02-19T05:06:16.180Z,101422.97
2023-02-19T05:08:45.276Z,101425.50
2023-02-19T05:11:15.680Z,101438.56
2023-02-19T05:13:44.867Z,101430.03
2023-02-19T05:16:16.067Z,101427.28
2023-02-19T05:18:46.759Z,101429.44
2023-02-19T05:21:16.649Z,101437.09
2023-02-19T05:23:45.974Z,101443.31
2023-02-19T05:26:19.971Z,101442.41
2023-02-19T05:28:51.182Z,101442.31
2023-02-19T05:31:20.959Z,101451.31
2023-02-19T05:33:51.260Z,101450.38
2023-02-19T05:36:22.185Z,101452.94
2023-02-19T05:38:55.066Z,101451.44
2023-02-19T05:41:27.142Z,101458.69
2023-02-19T05:43:57.142Z,101469.97
2023-02-19T05:46:28.090Z,101469.97
2023-02-19T05:48:58.092Z,101472.81
2023-02-19T05:51:28.758Z,101470.53
2023-02-19T05:53:58.626Z,101476.59
2023-02-19T05:56:39.383Z,101482.03
2023-02-19T05:59:15.096Z,101481.88
2023-02-19T06:01:44.263Z,101492.22
2023-02-19T06:04:15.475Z,101499.06
2023-02-19T06:06:44.648Z,101495.03
2023-02-19T06:09:14.001Z,101507.81
2023-02-19T06:11:44.798Z,101520.03
2023-02-19T06:14:14.871Z,101521.22
2023-02-19T06:16:43.992Z,101527.19
2023-02-19T06:19:13.111Z,101531.34
2023-02-19T06:21:42.222Z,101534.88
2023-02-19T06:24:11.828Z,101535.06
2023-02-19T06:26:40.919Z,101534.03
2023-02-19T06:29:11.307Z,101541.16
2023-02-19T06:31:40.492Z,101548.66
2023-02-19T06:34:09.683Z,101556.13
2023-02-19T06:36:38.796Z,101561.41
2023-02-19T06:39:08.209Z,101568.47
2023-02-19T06:41:37.262Z,101572.63
2023-02-19T06:44:06.504Z,101581.06
2023-02-19T06:46:37.232Z,101586.53
2023-02-19T06:49:06.598Z,101594.38
2023-02-19T06:51:36.090Z,101591.47
2023-02-19T06:54:05.280Z,101605.31
2023-02-19T06:56:35.806Z,101607.47
2023-02-19T06:59:07.599Z,101601.41
2023-02-19T07:01:39.463Z,101602.25
2023-02-19T07:04:08.598Z,101613.50
2023-02-19T07:06:38.686Z,101612.44
2023-02-19T07:09:08.997Z,101610.41
2023-02-19T07:11:40.047Z,101622.06
2023-02-19T07:14:18.248Z,101636.75
2023-02-19T07:16:49.071Z,101635.94
2023-02-19T07:19:18.215Z,101641.75
2023-02-19T07:21:47.328Z,101651.94
2023-02-19T07:24:16.576Z,101662.19
2023-02-19T07:26:45.626Z,101658.50
2023-02-19T07:29:14.744Z,101664.06
2023-02-19T07:31:44.716Z,101666.34
2023-02-19T07:34:15.112Z,101668.50
2023-02-19T07:36:44.207Z,101667.53
2023-02-19T07:39:14.640Z,101675.06
2023-02-19T07:41:43.732Z,101681.75
2023-02-19T07:44:19.679Z,101687.34
2023-02-19T07:46:48.749Z,101694.56
2023-02-19T07:49:19.312Z,101688.88
2023-02-19T07:51:48.401Z,101687.69
2023-02-19T07:54:17.442Z,101694.25
2023-02-19T07:56:46.492Z,101698.19
2023-02-19T07:59:15.845Z,101702.88
2023-02-19T08:02:02.698Z,101708.44
2023-02-19T08:04:33.252Z,101715.00
2023-02-19T08:07:02.329Z,101723.09
2023-02-19T08:09:31.499Z,101735.78
2023-02-19T08:12:17.890Z,101728.31
2023-02-19T08:14:46.976Z,101725.50
2023-02-19T08:17:16.034Z,101724.69
2023-02-19T08:19:46.458Z,101730.66
2023-02-19T08:22:16.271Z,101730.19
2023-02-19T08:24:45.339Z,101732.41
2023-02-19T08:27:14.397Z,101721.16
2023-02-19T08:29:43.440Z,101723.03
2023-02-19T08:32:12.540Z,101724.28
2023-02-19T08:34:41.844Z,101731.31
2023-02-19T08:37:12.256Z,101732.34
2023-02-19T08:39:41.355Z,101737.69
2023-02-19T08:42:10.413Z,101739.94
2023-02-19T08:44:39.507Z,101748.22
2023-02-19T08:47:08.573Z,101763.97
2023-02-19T08:49:37.610Z,101761.72
2023-02-19T08:52:06.814Z,101764.22
2023-02-19T08:54:37.493Z,101763.75
2023-02-19T08:57:06.652Z,101779.91
2023-02-19T08:59:35.710Z,101789.31
2023-02-19T09:02:04.859Z,101789.78
2023-02-19T09:04:33.961Z,101794.00
2023-02-19T09:07:03.114Z,101808.63
2023-02-19T09:09:32.162Z,101811.84
2023-02-19T09:12:02.698Z,101809.53
2023-02-19T09:14:33.563Z,101808.56
2023-02-19T09:17:03.364Z,101824.69
2023-02-19T09:19:32.885Z,101829.81
2023-02-19T09:22:02.039Z,101831.22
2023-02-19T09:24:31.242Z,101835.28
2023-02-19T09:27:01.691Z,101834.47
2023-02-19T09:29:31.555Z,101833.88
2023-02-19T09:32:02.309Z,101824.69
2023-02-19T09:34:31.490Z,101826.44
2023-02-19T09:37:00.553Z,101828.72
2023-02-19T09:39:29.731Z,101836.34
2023-02-19T09:42:03.733Z,101846.16
2023-02-19T09:44:36.317Z,101853.81
2023-02-19T09:47:10.193Z,101857.66
2023-02-19T09:49:43.523Z,101854.94
2023-02-19T09:52:20.208Z,101849.63
2023-02-19T09:54:49.631Z,101839.81
2023-02-19T09:57:22.420Z,101858.22
2023-02-19T09:59:53.952Z,101867.88
2023-02-19T10:02:25.553Z,101883.25
2023-02-19T10:04:55.175Z,101883.84
2023-02-19T10:07:26.666Z,101889.53
2023-02-19T10:09:59.586Z,101898.56
2023-02-19T10:12:31.968Z,101906.25
2023-02-19T10:15:12.782Z,101914.91
2023-02-19T10:17:41.887Z,101914.66
2023-02-19T10:20:14.354Z,101920.00
2023-02-19T10:22:44.350Z,101923.16
2023-02-19T10:25:17.395Z,101941.13
2023-02-19T10:27:47.904Z,101935.66
2023-02-19T10:30:22.525Z,101939.47
2023-02-19T10:33:04.936Z,101930.41
2023-02-19T10:35:39.515Z,101929.44
2023-02-19T10:38:08.752Z,101932.97
2023-02-19T10:40:44.831Z,101928.72
2023-02-19T10:43:31.013Z,101933.56
2023-02-19T10:46:06.041Z,101945.84
2023-02-19T10:48:38.496Z,101940.25
2023-02-19T10:51:10.551Z,101930.88
2023-02-19T10:53:45.591Z,101937.81
2023-02-19T10:56:16.834Z,101945.06
2023-02-19T10:58:47.652Z,101955.81
2023-02-19T11:01:20.491Z,101964.28
2023-02-19T11:03:51.270Z,101970.44
2023-02-19T11:06:22.622Z,101977.50
2023-02-19T11:08:54.957Z,101974.25
2023-02-19T11:11:30.369Z,101977.69
2023-02-19T11:14:05.096Z,101976.97
2023-02-19T11:16:43.045Z,101973.41
2023-02-19T11:19:28.272Z,101976.38
2023-02-19T11:21:58.225Z,101979.75
2023-02-19T11:24:33.782Z,101970.66
2023-02-19T11:27:05.731Z,101976.88
2023-02-19T11:29:36.334Z,101980.72
2023-02-19T11:32:30.553Z,101971.31
2023-02-19T11:35:17.845Z,101971.34
2023-02-19T11:38:01.294Z,101982.19
2023-02-19T11:40:41.989Z,101979.47
2023-02-19T11:43:34.634Z,101989.00
2023-02-19T11:46:10.537Z,101991.56
2023-02-19T11:48:53.797Z,101993.00
2023-02-19T11:51:46.154Z,101992.44
2023-02-19T11:54:40.035Z,101995.53
2023-02-19T11:57:20.062Z,101989.16
2023-02-19T11:59:55.982Z,101991.69
2023-02-19T12:02:57.811Z,101978.88
2023-02-19T12:05:43.294Z,101982.31
2023-02-19T12:08:32.015Z,101980.47
2023-02-19T12:11:16.547Z,101984.13
2023-02-19T12:14:03.170Z,101988.25
2023-02-19T12:16:38.038Z,101989.03
2023-02-19T12:19:36.692Z,101982.34
2023-02-19T12:22:28.276Z,101998.06
2023-02-19T12:25:24.730Z,101999.94
2023-02-19T12:28:16.379Z,101999.28
2023-02-19T12:31:06.622Z,102006.25
2023-02-19T12:34:05.059Z,102010.59
2023-02-19T12:36:41.628Z,102008.78
2023-02-19T12:39:23.993Z,102014.53
2023-02-19T12:42:04.356Z,102007.81
2023-02-19T12:44:41.630Z,102009.94
2023-02-19T12:47:20.502Z,102003.31
2023-02-19T12:50:04.785Z,102007.44
2023-02-19T12:52:40.302Z,102001.72
2023-02-19T12:55:22.133Z,102006.75
2023-02-19T12:57:52.686Z,102003.09
2023-02-19T13:00:34.363Z,101989.38
2023-02-19T13:03:12.120Z,101988.06
2023-02-19T13:05:48.861Z,101978.63
2023-02-19T13:08:27.294Z,101985.50
2023-02-19T13:11:02.307Z,101990.13
2023-02-19T13:13:38.446Z,101976.00
2023-02-19T13:16:15.101Z,101971.19
2023-02-19T13:18:49.860Z,101968.13
2023-02-19T13:21:35.354Z,101972.53
2023-02-19T13:24:08.797Z,101970.97
2023-02-19T13:26:57.290Z,101967.75
2023-02-19T13:29:54.583Z,101965.75
2023-02-19T13:32:39.458Z,101967.28
2023-02-19T13:35:25.976Z,101982.66
2023-02-19T13:37:56.586Z,101970.44
2023-02-19T13:40:32.879Z,101983.28
2023-02-19T13:43:06.040Z,101986.44
2023-02-19T13:45:39.845Z,101972.31
2023-02-19T13:48:25.406Z,101971.13
2023-02-19T13:51:35.608Z,101985.56
2023-02-19T13:54:21.209Z,101989.16
2023-02-19T13:56:51.054Z,101996.97
2023-02-19T13:59:43.471Z,101987.22
2023-02-19T14:02:36.387Z,101987.16
2023-02-19T14:05:10.624Z,101989.34
2023-02-19T14:08:04.355Z,101991.06
2023-02-19T14:10:57.785Z,101992.66
2023-02-19T14:14:11.060Z,102003.56
2023-02-19T14:17:19.566Z,102000.22
2023-02-19T14:19:55.926Z,102005.13
2023-02-19T14:22:47.772Z,102012.84
2023-02-19T14:25:28.700Z,102002.94
2023-02-19T14:28:03.502Z,101998.44
2023-02-19T14:30:35.879Z,102006.28
2023-02-19T14:33:11.337Z,102011.75
2023-02-19T14:35:45.842Z,102002.06
2023-02-19T14:38:21.302Z,102005.38
2023-02-19T14:40:53.074Z,101997.34
2023-02-19T14:43:25.895Z,101981.59
2023-02-19T14:45:59.413Z,101981.63
2023-02-19T14:48:34.726Z,101980.19
2023-02-19T14:51:09.190Z,101980.00
2023-02-19T14:53:43.843Z,101974.53
2023-02-19T14:56:24.048Z,101962.81
2023-02-19T14:59:09.596Z,101973.09
2023-02-19T15:01:39.909Z,101966.13
2023-02-19T15:04:23.464Z,101982.09
2023-02-19T15:06:57.005Z,101984.91
2023-02-19T15:09:31.589Z,101988.59
2023-02-19T15:12:02.682Z,101987.00
2023-02-19T15:14:32.690Z,101988.59
2023-02-19T15:17:05.069Z,101985.28
2023-02-19T15:19:39.497Z,101986.69
2023-02-19T15:22:21.071Z,101991.69
2023-02-19T15:24:50.592Z,101993.66
2023-02-19T15:27:21.569Z,101994.75
2023-02-19T15:29:53.709Z,101982.34
2023-02-19T15:32:26.301Z,101988.72
2023-02-19T15:34:57.037Z,101991.53
2023-02-19T15:37:29.910Z,101999.91
2023-02-19T15:40:01.283Z,101997.25
2023-02-19T15:42:32.727Z,101998.91
2023-02-19T15:45:08.339Z,102003.66
2023-02-19T15:47:40.948Z,102001.63
2023-02-19T15:50:17.020Z,102010.91
2023-02-19T15:52:59.279Z,102018.78
2023-02-19T15:55:35.286Z,102013.81
2023-02-19T15:58:10.072Z,102014.34
2023-02-19T16:00:45.534Z,102022.44
2023-02-19T16:03:20.444Z,102020.63
2023-02-19T16:06:00.754Z,102023.38
2023-02-19T16:08:33.307Z,102016.28
2023-02-19T16:11:05.488Z,102017.59
2023-02-19T16:13:36.300Z,102019.97
2023-02-19T16:16:16.368Z,102027.78
2023-02-19T16:18:47.642Z,102016.44
2023-02-19T16:21:19.120Z,102018.72
2023-02-19T16:23:54.635Z,102023.72
2023-02-19T16:26:24.025Z,102027.97
2023-02-19T16:28:54.626Z,102025.50
2023-02-19T16:31:25.416Z,102030.25
2023-02-19T16:33:54.666Z,102028.19
2023-02-19T16:36:27.320Z,102031.84
2023-02-19T16:39:22.943Z,102026.44
2023-02-19T16:42:19.861Z,102021.81
2023-02-19T16:44:49.597Z,102025.41
2023-02-19T16:47:44.861Z,102028.56
2023-02-19T16:50:17.795Z,102035.75
2023-02-19T16:52:54.024Z,102021.66
2023-02-19T16:55:25.514Z,102033.84
2023-02-19T16:57:55.254Z,102040.69
2023-02-19T17:00:26.443Z,102024.47
2023-02-19T17:02:59.552Z,102029.63
2023-02-19T17:05:32.307Z,102037.81
2023-02-19T17:08:01.465Z,102041.41
2023-02-19T17:10:31.884Z,102032.22
2023-02-19T17:13:01.098Z,102030.16
2023-02-19T17:15:30.344Z,102032.31
2023-02-19T17:17:59.428Z,102033.06
2023-02-19T17:20:32.641Z,102029.00
2023-02-19T17:23:01.833Z,102028.63
2023-02-19T17:25:32.418Z,102023.28
2023-02-19T17:28:01.543Z,102036.91
2023-02-19T17:30:32.684Z,102040.25
2023-02-19T17:33:01.918Z,102041.09
2023-02-19T17:35:31.043Z,102045.41
2023-02-19T17:38:00.249Z,102038.03
2023-02-19T17:40:33.825Z,102040.34
2023-02-19T17:43:03.488Z,102043.75
2023-02-19T17:45:32.693Z,102042.47
2023-02-19T17:48:02.229Z,102044.38
2023-02-19T17:50:32.895Z,102045.59
2023-02-19T17:53:02.005Z,102054.31
2023-02-19T17:55:33.573Z,102053.53
2023-02-19T17:58:02.940Z,102058.81
2023-02-19T18:00:32.624Z,102059.13
2023-02-19T18:03:01.716Z,102070.00
2023-02-19T18:05:31.379Z,102066.75
2023-02-19T18:08:00.586Z,102062.63
2023-02-19T18:10:30.461Z,102062.44
2023-02-19T18:13:00.995Z,102063.28
2023-02-19T18:15:30.244Z,102066.53
2023-02-19T18:17:59.516Z,102063.13
2023-02-19T18:20:31.198Z,102072.38
2023-02-19T18:23:00.729Z,102073.94
2023-02-19T18:25:30.147Z,102073.34
2023-02-19T18:28:01.533Z,102063.41
2023-02-19T18:30:31.036Z,102066.97
2023-02-19T18:33:00.814Z,102060.53
2023-02-19T18:35:30.290Z,102058.78
2023-02-19T18:37:59.779Z,102060.59
2023-02-19T18:40:29.258Z,102053.63
2023-02-19T18:43:00.049Z,102056.25
2023-02-19T18:45:29.840Z,102052.47
2023-02-19T18:47:59.169Z,102047.38
2023-02-19T18:50:28.618Z,102051.81
2023-02-19T18:52:58.025Z,102042.53
2023-02-19T18:55:27.420Z,102037.97
2023-02-19T18:57:57.036Z,102039.53
2023-02-19T19:00:27.935Z,102035.88
2023-02-19T19:02:58.834Z,102039.53
2023-02-19T19:05:28.348Z,102032.75
2023-02-19T19:07:59.416Z,102034.53
2023-02-19T19:10:29.234Z,102023.22
2023-02-19T19:13:01.211Z,102024.13
2023-02-19T19:15:31.962Z,102017.66
2023-02-19T19:18:02.856Z,102024.25
2023-02-19T19:20:32.108Z,102011.81
2023-02-19T19:23:01.369Z,102003.84
2023-02-19T19:25:30.594Z,102000.28
2023-02-19T19:27:59.860Z,102009.03
2023-02-19T19:30:29.161Z,102002.75
2023-02-19T19:33:03.878Z,102009.44
2023-02-19T19:35:33.250Z,102008.09
2023-02-19T19:38:02.938Z,102004.72
2023-02-19T19:40:32.730Z,102007.50
2023-02-19T19:43:01.913Z,102004.50
2023-02-19T19:45:31.236Z,101997.94
2023-02-19T19:48:01.973Z,102010.19
2023-02-19T19:50:31.977Z,102009.16
2023-02-19T19:53:01.200Z,102003.63
2023-02-19T19:55:30.524Z,102001.34
2023-02-19T19:58:00.875Z,102006.22
2023-02-19T20:00:30.460Z,102015.06
2023-02-19T20:03:01.022Z,102020.50
2023-02-19T20:05:30.184Z,102011.22
2023-02-19T20:07:59.517Z,102019.16
2023-02-19T20:10:28.931Z,102024.03
2023-02-19T20:12:58.261Z,102014.72
2023-02-19T20:15:27.732Z,102005.84
2023-02-19T20:17:57.047Z,101996.59
2023-02-19T20:20:27.600Z,102006.97
2023-02-19T20:23:00.260Z,102002.75
2023-02-19T20:25:29.440Z,101991.00
2023-02-19T20:27:58.754Z,101984.75
2023-02-19T20:30:28.160Z,101992.97
2023-02-19T20:32:57.794Z,101997.19
2023-02-19T20:35:29.927Z,101989.38
2023-02-19T20:37:59.380Z,101985.69
2023-02-19T20:40:30.523Z,101987.25
2023-02-19T20:43:01.014Z,101985.03
2023-02-19T20:45:30.898Z,101981.78
2023-02-19T20:48:00.727Z,101978.19
2023-02-19T20:50:31.444Z,101975.53
2023-02-19T20:53:01.216Z,101973.13
2023-02-19T20:55:31.924Z,101968.91
2023-02-19T20:58:01.271Z,101976.84
2023-02-19T21:00:30.462Z,101975.59
2023-02-19T21:02:59.835Z,101972.44
2023-02-19T21:05:30.378Z,101972.69
2023-02-19T21:07:59.412Z,101972.63
2023-02-19T21:10:28.484Z,101964.44
2023-02-19T21:12:57.628Z,101958.25
2023-02-19T21:15:26.656Z,101954.03
2023-02-19T21:17:55.740Z,101948.97
2023-02-19T21:20:24.828Z,101967.69
2023-02-19T21:22:55.525Z,101965.94
2023-02-19T21:25:24.714Z,101965.34
2023-02-19T21:27:53.830Z,101966.84
2023-02-19T21:30:23.012Z,101971.44
2023-02-19T21:32:52.183Z,101972.75
2023-02-19T21:35:21.297Z,101967.19
2023-02-19T21:37:50.708Z,101961.97
2023-02-19T21:40:23.342Z,101966.75
2023-02-19T21:42:52.461Z,101968.66
2023-02-19T21:45:21.590Z,101963.06
2023-02-19T21:47:52.023Z,101957.81
2023-02-19T21:50:21.578Z,101955.41
2023-02-19T21:52:50.909Z,101944.88
2023-02-19T21:55:21.350Z,101941.56
2023-02-19T21:57:50.528Z,101937.25
2023-02-19T22:00:20.199Z,101930.97
2023-02-19T22:02:49.280Z,101913.72
2023-02-19T22:05:18.549Z,101903.22
2023-02-19T22:07:49.132Z,101906.63
2023-02-19T22:10:18.777Z,101907.84
2023-02-19T22:12:49.505Z,101908.88
2023-02-19T22:15:18.759Z,101922.47
2023-02-19T22:17:48.039Z,101932.28
2023-02-19T22:20:19.511Z,101914.03
2023-02-19T22:22:48.624Z,101915.53
2023-02-19T22:25:17.764Z,101910.78
2023-02-19T22:27:48.867Z,101907.72
2023-02-19T22:30:18.500Z,101912.34
2023-02-19T22:32:47.542Z,101913.28
2023-02-19T22:35:16.762Z,101901.47
2023-02-19T22:37:45.903Z,101903.63
2023-02-19T22:40:15.279Z,101899.00
2023-02-19T22:42:44.385Z,101913.28
2023-02-19T22:45:15.716Z,101905.97
2023-02-19T22:47:46.812Z,101901.19
2023-02-19T22:50:19.540Z,101912.22
2023-02-19T22:52:48.735Z,101906.78
2023-02-19T22:55:18.332Z,101907.25
2023-02-19T22:57:47.409Z,101915.19
2023-02-19T23:00:21.501Z,101909.00
2023-02-19T23:02:50.669Z,101902.09
2023-02-19T23:05:19.729Z,101896.63
2023-02-19T23:07:48.766Z,101886.63
2023-02-19T23:10:18.146Z,101890.03
2023-02-19T23:12:47.195Z,101894.22
2023-02-19T23:15:16.292Z,101888.13
2023-02-19T23:17:48.002Z,101896.28
2023-02-19T23:20:17.333Z,101885.78
2023-02-19T23:22:46.400Z,101873.28
2023-02-19T23:25:15.667Z,101871.88
2023-02-19T23:27:44.815Z,101870.13
2023-02-19T23:30:15.869Z,101871.03
2023-02-19T23:32:45.051Z,101862.38
2023-02-19T23:35:15.453Z,101859.28
2023-02-19T23:37:44.582Z,101850.16
2023-02-19T23:40:14.884Z,101845.16
2023-02-19T23:42:43.972Z,101841.00
2023-02-19T23:45:13.322Z,101830.91
2023-02-19T23:47:42.392Z,101818.97
2023-02-19T23:50:11.917Z,101825.88
2023-02-19T23:52:42.386Z,101821.75
2023-02-19T23:55:13.475Z,101827.59
2023-02-19T23:57:42.610Z,101798.13
